sensor_id;sensor_type;location;lat;lon;timestamp;pressure;altitude;pressure_sealevel;temperature;humidity
2761;BME280;15420;48.636;9.798;2022-08-26T00:01:32;96474.66;;;23.78;69.90
2761;BME280;15420;48.636;9.798;2022-08-26T00:03:58;96470.31;;;23.77;69.86
2761;BME280;15420;48.636;9.798;2022-08-26T00:06:30;96470.38;;;23.76;70.40
2761;BME280;15420;48.636;9.798;2022-08-26T00:08:56;96464.34;;;23.72;70.26
2761;BME280;15420;48.636;9.798;2022-08-26T00:11:22;96467.03;;;23.71;70.44
2761;BME280;15420;48.636;9.798;2022-08-26T00:13:53;96468.94;;;23.67;70.88
2761;BME280;15420;48.636;9.798;2022-08-26T00:16:23;96462.16;;;23.60;71.61
2761;BME280;15420;48.636;9.798;2022-08-26T00:18:49;96466.69;;;23.57;70.99
2761;BME280;15420;48.636;9.798;2022-08-26T00:21:16;96460.59;;;23.55;71.58
2761;BME280;15420;48.636;9.798;2022-08-26T00:23:44;96466.84;;;23.51;71.88
2761;BME280;15420;48.636;9.798;2022-08-26T00:26:13;96461.75;;;23.46;72.54
2761;BME280;15420;48.636;9.798;2022-08-26T00:28:42;96462.84;;;23.40;73.21
2761;BME280;15420;48.636;9.798;2022-08-26T00:31:08;96458.53;;;23.38;73.66
2761;BME280;15420;48.636;9.798;2022-08-26T00:33:34;96461.22;;;23.36;72.86
2761;BME280;15420;48.636;9.798;2022-08-26T00:36:03;96456.88;;;23.35;72.89
2761;BME280;15420;48.636;9.798;2022-08-26T00:38:30;96454.28;;;23.34;72.39
2761;BME280;15420;48.636;9.798;2022-08-26T00:40:56;96450.84;;;23.32;72.51
2761;BME280;15420;48.636;9.798;2022-08-26T00:43:24;96451.78;;;23.31;72.44
2761;BME280;15420;48.636;9.798;2022-08-26T00:46:15;96448.28;;;23.30;72.10
2761;BME280;15420;48.636;9.798;2022-08-26T00:48:46;96452.72;;;23.28;72.22
2761;BME280;15420;48.636;9.798;2022-08-26T00:51:19;96448.38;;;23.27;72.30
2761;BME280;15420;48.636;9.798;2022-08-26T00:53:54;96442.31;;;23.25;72.25
2761;BME280;15420;48.636;9.798;2022-08-26T00:59:01;96450.38;;;23.21;72.75
2761;BME280;15420;48.636;9.798;2022-08-26T01:01:28;96449.72;;;23.14;73.45
2761;BME280;15420;48.636;9.798;2022-08-26T01:03:55;96453.31;;;23.11;73.34
2761;BME280;15420;48.636;9.798;2022-08-26T01:06:22;96448.22;;;23.07;73.53
2761;BME280;15420;48.636;9.798;2022-08-26T01:08:52;96444.97;;;22.99;74.08
2761;BME280;15420;48.636;9.798;2022-08-26T01:11:21;96448.63;;;22.95;74.38
2761;BME280;15420;48.636;9.798;2022-08-26T01:13:50;96439.91;;;22.93;75.20
2761;BME280;15420;48.636;9.798;2022-08-26T01:16:20;96439.16;;;22.89;75.34
2761;BME280;15420;48.636;9.798;2022-08-26T01:18:53;96451.44;;;22.89;75.39
2761;BME280;15420;48.636;9.798;2022-08-26T01:21:30;96445.34;;;22.88;75.39
2761;BME280;15420;48.636;9.798;2022-08-26T01:24:01;96445.34;;;22.88;74.93
2761;BME280;15420;48.636;9.798;2022-08-26T01:26:32;96442.69;;;22.88;75.39
2761;BME280;15420;48.636;9.798;2022-08-26T01:29:05;96442.66;;;22.90;75.43
2761;BME280;15420;48.636;9.798;2022-08-26T01:31:39;96441.75;;;22.91;75.34
2761;BME280;15420;48.636;9.798;2022-08-26T01:34:19;96454.03;;;22.90;76.31
2761;BME280;15420;48.636;9.798;2022-08-26T01:36:53;96447.91;;;22.90;76.07
2761;BME280;15420;48.636;9.798;2022-08-26T01:39:21;96458.41;;;22.90;76.17
2761;BME280;15420;48.636;9.798;2022-08-26T01:41:49;96457.66;;;22.88;76.22
2761;BME280;15420;48.636;9.798;2022-08-26T01:44:21;96445.50;;;22.83;75.83
2761;BME280;15420;48.636;9.798;2022-08-26T01:46:52;96444.72;;;22.81;76.43
2761;BME280;15420;48.636;9.798;2022-08-26T01:49:21;96450.91;;;22.79;76.17
2761;BME280;15420;48.636;9.798;2022-08-26T01:51:54;96450.94;;;22.77;75.75
2761;BME280;15420;48.636;9.798;2022-08-26T01:54:21;96454.56;;;22.73;76.19
2761;BME280;15420;48.636;9.798;2022-08-26T01:56:49;96454.66;;;22.70;76.29
2761;BME280;15420;48.636;9.798;2022-08-26T01:59:18;96446.97;;;22.64;76.30
2761;BME280;15420;48.636;9.798;2022-08-26T02:01:48;96454.91;;;22.63;76.86
2761;BME280;15420;48.636;9.798;2022-08-26T02:04:32;96450.75;;;22.56;77.91
2761;BME280;15420;48.636;9.798;2022-08-26T02:07:03;96452.72;;;22.49;78.04
2761;BME280;15420;48.636;9.798;2022-08-26T02:09:32;96454.50;;;22.48;78.82
2761;BME280;15420;48.636;9.798;2022-08-26T02:12:02;96456.44;;;22.42;79.31
2761;BME280;15420;48.636;9.798;2022-08-26T02:14:34;96459.13;;;22.40;80.20
2761;BME280;15420;48.636;9.798;2022-08-26T02:17:02;96449.53;;;22.39;80.52
2761;BME280;15420;48.636;9.798;2022-08-26T02:19:33;96451.44;;;22.34;80.46
2761;BME280;15420;48.636;9.798;2022-08-26T02:22:06;96447.22;;;22.29;81.30
2761;BME280;15420;48.636;9.798;2022-08-26T02:24:51;96447.22;;;22.29;80.62
2761;BME280;15420;48.636;9.798;2022-08-26T02:27:32;96444.75;;;22.24;81.22
2761;BME280;15420;48.636;9.798;2022-08-26T02:30:11;96453.56;;;22.22;81.41
2761;BME280;15420;48.636;9.798;2022-08-26T02:32:38;96451.94;;;22.17;81.21
2761;BME280;15420;48.636;9.798;2022-08-26T02:35:09;96451.13;;;22.15;81.45
2761;BME280;15420;48.636;9.798;2022-08-26T02:37:38;96447.66;;;22.15;81.44
2761;BME280;15420;48.636;9.798;2022-08-26T02:40:07;96447.69;;;22.13;81.66
2761;BME280;15420;48.636;9.798;2022-08-26T02:42:34;96444.16;;;22.14;81.97
2761;BME280;15420;48.636;9.798;2022-08-26T02:45:04;96443.31;;;22.14;81.28
2761;BME280;15420;48.636;9.798;2022-08-26T02:47:33;96443.31;;;22.14;82.19
2761;BME280;15420;48.636;9.798;2022-08-26T02:50:03;96442.53;;;22.10;82.18
2761;BME280;15420;48.636;9.798;2022-08-26T02:52:32;96439.94;;;22.09;82.31
2761;BME280;15420;48.636;9.798;2022-08-26T02:55:00;96443.44;;;22.09;82.19
2761;BME280;15420;48.636;9.798;2022-08-26T02:57:29;96441.66;;;22.10;81.76
2761;BME280;15420;48.636;9.798;2022-08-26T02:59:56;96440.84;;;22.08;81.75
2761;BME280;15420;48.636;9.798;2022-08-26T03:02:22;96434.88;;;22.03;81.85
2761;BME280;15420;48.636;9.798;2022-08-26T03:04:51;96441.03;;;22.02;81.86
2761;BME280;15420;48.636;9.798;2022-08-26T03:07:17;96435.91;;;21.97;82.31
2761;BME280;15420;48.636;9.798;2022-08-26T03:09:47;96436.78;;;21.96;81.72
2761;BME280;15420;48.636;9.798;2022-08-26T03:12:13;96440.41;;;21.92;83.55
2761;BME280;15420;48.636;9.798;2022-08-26T03:14:39;96440.38;;;21.94;82.66
2761;BME280;15420;48.636;9.798;2022-08-26T03:17:08;96437.78;;;21.92;83.33
2761;BME280;15420;48.636;9.798;2022-08-26T03:19:34;96436.97;;;21.90;83.57
2761;BME280;15420;48.636;9.798;2022-08-26T03:22:00;96436.97;;;21.90;83.11
2761;BME280;15420;48.636;9.798;2022-08-26T03:24:30;96433.59;;;21.86;83.37
2761;BME280;15420;48.636;9.798;2022-08-26T03:27:00;96441.56;;;21.83;83.29
2761;BME280;15420;48.636;9.798;2022-08-26T03:29:26;96430.34;;;21.78;83.74
2761;BME280;15420;48.636;9.798;2022-08-26T03:32:11;96426.00;;;21.77;83.75
2761;BME280;15420;48.636;9.798;2022-08-26T03:34:37;96433.94;;;21.76;84.31
2761;BME280;15420;48.636;9.798;2022-08-26T03:37:06;96434.00;;;21.73;83.57
2761;BME280;15420;48.636;9.798;2022-08-26T03:42:03;96423.69;;;21.67;84.29
2761;BME280;15420;48.636;9.798;2022-08-26T03:44:35;96431.59;;;21.65;84.92
2761;BME280;15420;48.636;9.798;2022-08-26T03:47:01;96425.53;;;21.63;84.99
2761;BME280;15420;48.636;9.798;2022-08-26T03:49:27;96425.53;;;21.63;85.12
2761;BME280;15420;48.636;9.798;2022-08-26T03:51:54;96423.06;;;21.59;85.80
2761;BME280;15420;48.636;9.798;2022-08-26T03:54:20;96431.78;;;21.59;85.98
2761;BME280;15420;48.636;9.798;2022-08-26T03:56:50;96429.25;;;21.56;86.66
2761;BME280;15420;48.636;9.798;2022-08-26T03:59:19;96437.16;;;21.54;87.63
2761;BME280;15420;48.636;9.798;2022-08-26T04:01:47;96432.00;;;21.51;88.44
2761;BME280;15420;48.636;9.798;2022-08-26T04:04:13;96428.56;;;21.49;87.99
2761;BME280;15420;48.636;9.798;2022-08-26T04:06:41;96434.69;;;21.48;88.91
2761;BME280;15420;48.636;9.798;2022-08-26T04:09:14;96424.25;;;21.47;88.07
2761;BME280;15420;48.636;9.798;2022-08-26T04:11:43;96427.78;;;21.46;88.19
2761;BME280;15420;48.636;9.798;2022-08-26T04:14:17;96429.53;;;21.45;89.46
2761;BME280;15420;48.636;9.798;2022-08-26T04:16:46;96432.25;;;21.42;90.00
2761;BME280;15420;48.636;9.798;2022-08-26T04:19:14;96433.16;;;21.41;89.42
2761;BME280;15420;48.636;9.798;2022-08-26T04:21:44;96438.44;;;21.40;90.08
2761;BME280;15420;48.636;9.798;2022-08-26T04:24:12;96428.88;;;21.37;90.94
2761;BME280;15420;48.636;9.798;2022-08-26T04:26:43;96428.13;;;21.34;91.18
2761;BME280;15420;48.636;9.798;2022-08-26T04:29:20;96427.25;;;21.33;90.91
2761;BME280;15420;48.636;9.798;2022-08-26T04:31:48;96424.78;;;21.27;90.29
2761;BME280;15420;48.636;9.798;2022-08-26T04:34:17;96423.91;;;21.28;90.26
2761;BME280;15420;48.636;9.798;2022-08-26T04:36:44;96424.88;;;21.24;89.35
2761;BME280;15420;48.636;9.798;2022-08-26T04:39:13;96419.69;;;21.23;89.30
2761;BME280;15420;48.636;9.798;2022-08-26T04:41:42;96420.53;;;21.23;89.10
2761;BME280;15420;48.636;9.798;2022-08-26T04:44:08;96422.31;;;21.23;90.06
2761;BME280;15420;48.636;9.798;2022-08-26T04:46:35;96415.28;;;21.23;89.15
2761;BME280;15420;48.636;9.798;2022-08-26T04:49:03;96422.31;;;21.23;89.16
2761;BME280;15420;48.636;9.798;2022-08-26T04:51:30;96424.03;;;21.24;88.78
2761;BME280;15420;48.636;9.798;2022-08-26T04:54:00;96427.41;;;21.27;89.58
2761;BME280;15420;48.636;9.798;2022-08-26T04:56:31;96423.97;;;21.25;88.75
2761;BME280;15420;48.636;9.798;2022-08-26T04:59:01;96421.31;;;21.27;88.87
2761;BME280;15420;48.636;9.798;2022-08-26T05:01:30;96426.50;;;21.28;89.47
2761;BME280;15420;48.636;9.798;2022-08-26T05:03:59;96427.38;;;21.29;89.94
2761;BME280;15420;48.636;9.798;2022-08-26T05:06:27;96432.56;;;21.30;89.34
2761;BME280;15420;48.636;9.798;2022-08-26T05:08:56;96431.69;;;21.31;89.08
2761;BME280;15420;48.636;9.798;2022-08-26T05:11:22;96435.19;;;21.30;89.62
2761;BME280;15420;48.636;9.798;2022-08-26T05:13:49;96430.78;;;21.32;90.75
2761;BME280;15420;48.636;9.798;2022-08-26T05:16:17;96434.22;;;21.34;90.44
2761;BME280;15420;48.636;9.798;2022-08-26T05:18:47;96428.06;;;21.35;90.21
2761;BME280;15420;48.636;9.798;2022-08-26T05:21:22;96434.94;;;21.39;89.50
2761;BME280;15420;48.636;9.798;2022-08-26T05:23:50;96432.28;;;21.41;89.25
2761;BME280;15420;48.636;9.798;2022-08-26T05:26:19;96430.47;;;21.43;89.88
2761;BME280;15420;48.636;9.798;2022-08-26T05:28:45;96435.59;;;21.47;89.29
2761;BME280;15420;48.636;9.798;2022-08-26T05:31:19;96434.66;;;21.50;89.77
2761;BME280;15420;48.636;9.798;2022-08-26T05:33:46;96438.06;;;21.53;88.78
2761;BME280;15420;48.636;9.798;2022-08-26T05:36:15;96436.25;;;21.56;89.14
2761;BME280;15420;48.636;9.798;2022-08-26T05:38:42;96429.16;;;21.59;89.27
2761;BME280;15420;48.636;9.798;2022-08-26T05:41:17;96436.91;;;21.64;89.28
2761;BME280;15420;48.636;9.798;2022-08-26T05:43:44;96440.28;;;21.67;89.20
2761;BME280;15420;48.636;9.798;2022-08-26T05:46:15;96434.09;;;21.70;88.69
2761;BME280;15420;48.636;9.798;2022-08-26T05:48:43;96438.31;;;21.75;89.02
2761;BME280;15420;48.636;9.798;2022-08-26T05:51:11;96428.56;;;21.80;88.27
2761;BME280;15420;48.636;9.798;2022-08-26T05:53:38;96435.34;;;21.86;88.65
2761;BME280;15420;48.636;9.798;2022-08-26T05:56:06;96435.31;;;21.87;88.50
2761;BME280;15420;48.636;9.798;2022-08-26T05:58:34;96432.50;;;21.94;88.70
2761;BME280;15420;48.636;9.798;2022-08-26T06:01:05;96436.75;;;21.98;87.99
2761;BME280;15420;48.636;9.798;2022-08-26T06:03:37;96433.94;;;22.05;87.63
2761;BME280;15420;48.636;9.798;2022-08-26T06:06:09;96446.03;;;22.11;88.17
2761;BME280;15420;48.636;9.798;2022-08-26T06:08:38;96442.44;;;22.13;87.74
2761;BME280;15420;48.636;9.798;2022-08-26T06:11:09;96438.78;;;22.19;87.68
2761;BME280;15420;48.636;9.798;2022-08-26T06:13:37;96449.13;;;22.24;87.54
2761;BME280;15420;48.636;9.798;2022-08-26T06:16:06;96455.91;;;22.31;87.37
2761;BME280;15420;48.636;9.798;2022-08-26T06:18:40;96451.38;;;22.36;87.79
2761;BME280;15420;48.636;9.798;2022-08-26T06:21:20;96445.91;;;22.43;87.19
2761;BME280;15420;48.636;9.798;2022-08-26T06:23:48;96465.00;;;22.48;86.76
2761;BME280;15420;48.636;9.798;2022-08-26T06:26:38;96460.47;;;22.54;87.00
2761;BME280;15420;48.636;9.798;2022-08-26T06:29:05;96468.16;;;22.60;87.29
2761;BME280;15420;48.636;9.798;2022-08-26T06:31:35;96466.19;;;22.66;86.92
2761;BME280;15420;48.636;9.798;2022-08-26T06:34:02;96467.81;;;22.70;87.04
2761;BME280;15420;48.636;9.798;2022-08-26T06:36:30;96467.66;;;22.75;86.96
2761;BME280;15420;48.636;9.798;2022-08-26T06:39:00;96471.03;;;22.80;86.89
2761;BME280;15420;48.636;9.798;2022-08-26T06:41:30;96471.78;;;22.83;87.01
2761;BME280;15420;48.636;9.798;2022-08-26T06:44:00;96472.47;;;22.89;86.95
2761;BME280;15420;48.636;9.798;2022-08-26T06:46:27;96474.94;;;22.93;86.88
2761;BME280;15420;48.636;9.798;2022-08-26T06:48:54;96472.22;;;22.96;86.45
2761;BME280;15420;48.636;9.798;2022-08-26T06:51:29;96471.25;;;22.99;86.51
2761;BME280;15420;48.636;9.798;2022-08-26T06:53:58;96461.44;;;23.04;86.30
2761;BME280;15420;48.636;9.798;2022-08-26T06:56:30;96458.72;;;23.07;86.23
2761;BME280;15420;48.636;9.798;2022-08-26T06:58:57;96464.78;;;23.09;86.35
2761;BME280;15420;48.636;9.798;2022-08-26T07:01:25;96465.53;;;23.12;86.47
2761;BME280;15420;48.636;9.798;2022-08-26T07:03:56;96465.44;;;23.15;86.35
2761;BME280;15420;48.636;9.798;2022-08-26T07:06:23;96466.16;;;23.21;86.18
2761;BME280;15420;48.636;9.798;2022-08-26T07:08:52;96461.63;;;23.24;86.00
2761;BME280;15420;48.636;9.798;2022-08-26T07:11:21;96462.28;;;23.31;85.85
2761;BME280;15420;48.636;9.798;2022-08-26T07:13:49;96458.75;;;23.32;85.87
2761;BME280;15420;48.636;9.798;2022-08-26T07:16:19;96461.22;;;23.36;86.42
2761;BME280;15420;48.636;9.798;2022-08-26T07:18:45;96460.09;;;23.43;86.26
2761;BME280;15420;48.636;9.798;2022-08-26T07:21:16;96457.31;;;23.48;86.32
2761;BME280;15420;48.636;9.798;2022-08-26T07:23:43;96466.78;;;23.54;86.42
2761;BME280;15420;48.636;9.798;2022-08-26T07:26:16;96463.09;;;23.59;86.58
2761;BME280;15420;48.636;9.798;2022-08-26T07:28:46;96459.44;;;23.63;86.62
2761;BME280;15420;48.636;9.798;2022-08-26T07:31:15;96463.59;;;23.69;86.60
2761;BME280;15420;48.636;9.798;2022-08-26T07:33:44;96468.59;;;23.76;86.44
2761;BME280;15420;48.636;9.798;2022-08-26T07:36:16;96461.41;;;23.82;85.81
2761;BME280;15420;48.636;9.798;2022-08-26T07:38:43;96470.78;;;23.89;86.51
2761;BME280;15420;48.636;9.798;2022-08-26T07:41:13;96454.72;;;23.95;86.44
2761;BME280;15420;48.636;9.798;2022-08-26T07:43:42;96463.31;;;24.00;86.59
2761;BME280;15420;48.636;9.798;2022-08-26T07:46:11;96464.00;;;24.05;86.28
2761;BME280;15420;48.636;9.798;2022-08-26T07:48:46;96457.59;;;24.12;86.95
2761;BME280;15420;48.636;9.798;2022-08-26T07:51:18;96466.13;;;24.19;87.01
2761;BME280;15420;48.636;9.798;2022-08-26T07:53:48;96462.41;;;24.24;86.42
2761;BME280;15420;48.636;9.798;2022-08-26T07:56:14;96457.72;;;24.32;86.34
2761;BME280;15420;48.636;9.798;2022-08-26T07:58:41;96458.34;;;24.39;86.31
2761;BME280;15420;48.636;9.798;2022-08-26T08:01:07;96458.09;;;24.45;85.94
2761;BME280;15420;48.636;9.798;2022-08-26T08:03:35;96456.94;;;24.52;85.70
2761;BME280;15420;48.636;9.798;2022-08-26T08:06:04;96461.97;;;24.58;85.99
2761;BME280;15420;48.636;9.798;2022-08-26T08:08:30;96467.81;;;24.66;86.22
2761;BME280;15420;48.636;9.798;2022-08-26T08:10:58;96452.66;;;24.71;85.91
2761;BME280;15420;48.636;9.798;2022-08-26T08:13:24;96459.41;;;24.78;85.67
2761;BME280;15420;48.636;9.798;2022-08-26T08:15:50;96458.31;;;24.84;85.58
2761;BME280;15420;48.636;9.798;2022-08-26T08:18:18;96455.41;;;24.90;85.62
2761;BME280;15420;48.636;9.798;2022-08-26T08:20:44;96454.25;;;24.97;85.26
2761;BME280;15420;48.636;9.798;2022-08-26T08:23:11;96452.28;;;25.02;85.23
2761;BME280;15420;48.636;9.798;2022-08-26T08:25:39;96453.81;;;25.08;84.68
2761;BME280;15420;48.636;9.798;2022-08-26T08:28:06;96457.09;;;25.13;83.88
2761;BME280;15420;48.636;9.798;2022-08-26T08:30:32;96454.13;;;25.21;83.73
2761;BME280;15420;48.636;9.798;2022-08-26T08:33:00;96461.88;;;25.25;82.91
2761;BME280;15420;48.636;9.798;2022-08-26T08:35:28;96456.31;;;25.31;82.47
2761;BME280;15420;48.636;9.798;2022-08-26T08:37:54;96466.63;;;25.37;82.73
2761;BME280;15420;48.636;9.798;2022-08-26T08:40:23;96461.09;;;25.43;82.69
2761;BME280;15420;48.636;9.798;2022-08-26T08:43:08;96457.19;;;25.52;82.17
2761;BME280;15420;48.636;9.798;2022-08-26T08:50:53;96453.56;;;25.75;81.79
2761;BME280;15420;48.636;9.798;2022-08-26T08:58:53;96455.72;;;26.04;81.14
2761;BME280;15420;48.636;9.798;2022-08-26T09:06:58;96454.50;;;26.32;79.36
2761;BME280;15420;48.636;9.798;2022-08-26T09:09:44;96443.41;;;26.43;78.27
2761;BME280;15420;48.636;9.798;2022-08-26T09:12:25;96440.41;;;26.50;77.59
2761;BME280;15420;48.636;9.798;2022-08-26T09:15:02;96442.63;;;26.59;76.75
2761;BME280;15420;48.636;9.798;2022-08-26T09:22:59;96437.56;;;26.91;74.38
2761;BME280;15420;48.636;9.798;2022-08-26T09:25:25;96440.38;;;27.05;73.69
2761;BME280;15420;48.636;9.798;2022-08-26T09:27:53;96440.69;;;27.16;72.68
2761;BME280;15420;48.636;9.798;2022-08-26T09:30:31;96440.06;;;27.28;72.11
2761;BME280;15420;48.636;9.798;2022-08-26T09:33:07;96441.41;;;27.37;71.67
2761;BME280;15420;48.636;9.798;2022-08-26T09:35:41;96442.63;;;27.47;71.10
2761;BME280;15420;48.636;9.798;2022-08-26T09:38:35;96441.88;;;27.62;69.68
2761;BME280;15420;48.636;9.798;2022-08-26T09:41:05;96436.19;;;27.70;68.68
2761;BME280;15420;48.636;9.798;2022-08-26T09:43:34;96429.47;;;27.80;67.85
2761;BME280;15420;48.636;9.798;2022-08-26T09:46:23;96428.81;;;27.92;67.17
2761;BME280;15420;48.636;9.798;2022-08-26T09:48:52;96418.56;;;28.02;67.13
2761;BME280;15420;48.636;9.798;2022-08-26T09:51:29;96416.06;;;28.15;66.63
2761;BME280;15420;48.636;9.798;2022-08-26T09:54:00;96411.94;;;28.26;65.83
2761;BME280;15420;48.636;9.798;2022-08-26T09:58:57;96415.78;;;28.52;63.75
2761;BME280;15420;48.636;9.798;2022-08-26T10:01:29;96407.91;;;28.67;62.90
2761;BME280;15420;48.636;9.798;2022-08-26T10:06:42;96410.72;;;28.95;61.35
2761;BME280;15420;48.636;9.798;2022-08-26T10:09:21;96416.16;;;29.08;59.27
2761;BME280;15420;48.636;9.798;2022-08-26T10:14:30;96404.81;;;29.34;57.54
2761;BME280;15420;48.636;9.798;2022-08-26T10:20:09;96386.50;;;29.59;55.91
2761;BME280;15420;48.636;9.798;2022-08-26T10:25:15;96382.53;;;29.81;54.80
2761;BME280;15420;48.636;9.798;2022-08-26T10:30:44;96380.63;;;29.97;53.19
2761;BME280;15420;48.636;9.798;2022-08-26T10:33:13;96376.56;;;30.06;52.67
2761;BME280;15420;48.636;9.798;2022-08-26T10:35:58;96381.28;;;30.15;51.59
2761;BME280;15420;48.636;9.798;2022-08-26T10:38:38;96380.88;;;30.21;51.02
2761;BME280;15420;48.636;9.798;2022-08-26T10:41:10;96380.22;;;30.17;49.83
2761;BME280;15420;48.636;9.798;2022-08-26T10:43:50;96380.13;;;30.19;49.70
2761;BME280;15420;48.636;9.798;2022-08-26T10:46:22;96387.75;;;30.11;48.62
2761;BME280;15420;48.636;9.798;2022-08-26T10:49:10;96396.13;;;30.05;48.11
2761;BME280;15420;48.636;9.798;2022-08-26T10:54:42;96407.88;;;29.86;49.23
2761;BME280;15420;48.636;9.798;2022-08-26T10:57:14;96393.63;;;29.73;51.07
2761;BME280;15420;48.636;9.798;2022-08-26T11:00:06;96387.75;;;29.68;51.10
2761;BME280;15420;48.636;9.798;2022-08-26T11:03:05;96394.47;;;29.59;51.93
2761;BME280;15420;48.636;9.798;2022-08-26T11:05:36;96393.97;;;29.53;53.15
2761;BME280;15420;48.636;9.798;2022-08-26T11:08:27;96395.31;;;29.46;51.81
2761;BME280;15420;48.636;9.798;2022-08-26T11:10:57;96397.44;;;29.39;52.63
2761;BME280;15420;48.636;9.798;2022-08-26T11:14:03;96389.00;;;29.33;52.25
2761;BME280;15420;48.636;9.798;2022-08-26T11:19:00;96382.59;;;29.21;55.78
2761;BME280;15420;48.636;9.798;2022-08-26T11:24:42;96375.09;;;29.13;58.21
2761;BME280;15420;48.636;9.798;2022-08-26T11:40:34;96371.72;;;29.25;60.71
2761;BME280;15420;48.636;9.798;2022-08-26T11:48:21;96356.53;;;29.57;57.69
2761;BME280;15420;48.636;9.798;2022-08-26T11:51:07;96350.94;;;29.76;56.69
2761;BME280;15420;48.636;9.798;2022-08-26T11:53:42;96348.56;;;30.00;55.48
2761;BME280;15420;48.636;9.798;2022-08-26T11:56:16;96354.56;;;30.31;54.00
2761;BME280;15420;48.636;9.798;2022-08-26T11:58:48;96352.28;;;30.66;52.40
2761;BME280;15420;48.636;9.798;2022-08-26T12:01:30;96352.41;;;31.04;50.84
2761;BME280;15420;48.636;9.798;2022-08-26T12:04:02;96357.97;;;31.39;49.96
2761;BME280;15420;48.636;9.798;2022-08-26T12:06:32;96355.34;;;31.77;48.61
2761;BME280;15420;48.636;9.798;2022-08-26T12:09:01;96357.09;;;32.14;47.10
2761;BME280;15420;48.636;9.798;2022-08-26T12:11:34;96360.28;;;32.56;45.50
2761;BME280;15420;48.636;9.798;2022-08-26T12:14:16;96362.69;;;32.96;45.08
2761;BME280;15420;48.636;9.798;2022-08-26T12:16:46;96361.97;;;33.40;43.93
2761;BME280;15420;48.636;9.798;2022-08-26T12:21:49;96364.50;;;34.21;41.50
2761;BME280;15420;48.636;9.798;2022-08-26T12:24:19;96365.50;;;34.63;39.38
2761;BME280;15420;48.636;9.798;2022-08-26T12:26:48;96362.97;;;35.05;38.20
2761;BME280;15420;48.636;9.798;2022-08-26T12:29:25;96358.06;;;35.52;36.93
2761;BME280;15420;48.636;9.798;2022-08-26T12:32:16;96353.66;;;35.92;35.41
2761;BME280;15420;48.636;9.798;2022-08-26T12:34:44;96350.69;;;36.26;34.33
2761;BME280;15420;48.636;9.798;2022-08-26T12:37:13;96335.78;;;36.62;33.09
2761;BME280;15420;48.636;9.798;2022-08-26T12:39:43;96336.97;;;36.98;32.11
2761;BME280;15420;48.636;9.798;2022-08-26T12:49:56;96322.91;;;37.99;29.35
2761;BME280;15420;48.636;9.798;2022-08-26T12:52:29;96332.75;;;38.27;29.39
2761;BME280;15420;48.636;9.798;2022-08-26T12:55:18;96334.53;;;38.54;27.77
2761;BME280;15420;48.636;9.798;2022-08-26T12:57:49;96330.44;;;38.78;28.23
2761;BME280;15420;48.636;9.798;2022-08-26T13:00:33;96327.06;;;39.11;27.50
2761;BME280;15420;48.636;9.798;2022-08-26T13:03:03;96323.72;;;39.35;27.55
2761;BME280;15420;48.636;9.798;2022-08-26T13:05:32;96330.19;;;39.68;27.57
2761;BME280;15420;48.636;9.798;2022-08-26T13:08:26;96331.06;;;39.95;26.47
2761;BME280;15420;48.636;9.798;2022-08-26T13:11:13;96335.50;;;40.04;26.21
2761;BME280;15420;48.636;9.798;2022-08-26T13:13:41;96325.13;;;39.91;27.85
2761;BME280;15420;48.636;9.798;2022-08-26T13:16:10;96336.13;;;39.72;28.77
2761;BME280;15420;48.636;9.798;2022-08-26T13:18:39;96327.50;;;39.68;28.96
2761;BME280;15420;48.636;9.798;2022-08-26T13:21:16;96322.72;;;39.62;29.17
2761;BME280;15420;48.636;9.798;2022-08-26T13:23:45;96323.41;;;39.64;29.09
2761;BME280;15420;48.636;9.798;2022-08-26T13:26:13;96323.84;;;39.77;29.21
2761;BME280;15420;48.636;9.798;2022-08-26T13:28:41;96324.16;;;40.00;28.16
2761;BME280;15420;48.636;9.798;2022-08-26T13:31:09;96319.38;;;40.28;27.09
2761;BME280;15420;48.636;9.798;2022-08-26T13:33:40;96309.69;;;40.51;26.91
2761;BME280;15420;48.636;9.798;2022-08-26T13:36:10;96314.28;;;40.75;27.38
2761;BME280;15420;48.636;9.798;2022-08-26T13:38:37;96322.28;;;40.93;26.97
2761;BME280;15420;48.636;9.798;2022-08-26T13:41:05;96318.06;;;40.99;26.80
2761;BME280;15420;48.636;9.798;2022-08-26T13:43:36;96314.69;;;41.05;26.64
2761;BME280;15420;48.636;9.798;2022-08-26T13:46:03;96310.63;;;41.01;27.14
2761;BME280;15420;48.636;9.798;2022-08-26T13:48:30;96309.63;;;41.02;27.13
2761;BME280;15420;48.636;9.798;2022-08-26T13:51:00;96316.88;;;41.01;27.06
2761;BME280;15420;48.636;9.798;2022-08-26T13:53:28;96322.44;;;40.92;27.22
2761;BME280;15420;48.636;9.798;2022-08-26T13:55:59;96311.56;;;40.67;27.36
2761;BME280;15420;48.636;9.798;2022-08-26T13:58:26;96310.69;;;40.42;27.96
2761;BME280;15420;48.636;9.798;2022-08-26T14:00:54;96311.44;;;40.27;27.98
2761;BME280;15420;48.636;9.798;2022-08-26T14:03:22;96301.78;;;40.16;28.02
2761;BME280;15420;48.636;9.798;2022-08-26T14:05:50;96296.13;;;39.93;28.06
2761;BME280;15420;48.636;9.798;2022-08-26T14:08:17;96297.59;;;39.62;28.81
2761;BME280;15420;48.636;9.798;2022-08-26T14:10:43;96299.47;;;39.17;29.04
2761;BME280;15420;48.636;9.798;2022-08-26T14:13:09;96293.78;;;38.85;29.46
2761;BME280;15420;48.636;9.798;2022-08-26T14:15:39;96290.84;;;38.60;29.84
2761;BME280;15420;48.636;9.798;2022-08-26T14:18:06;96295.56;;;38.49;29.81
2761;BME280;15420;48.636;9.798;2022-08-26T14:20:35;96285.84;;;38.48;30.10
2761;BME280;15420;48.636;9.798;2022-08-26T14:23:06;96280.66;;;38.54;30.05
2761;BME280;15420;48.636;9.798;2022-08-26T14:25:35;96279.75;;;38.64;30.22
2761;BME280;15420;48.636;9.798;2022-08-26T14:28:01;96279.91;;;38.80;29.96
2761;BME280;15420;48.636;9.798;2022-08-26T14:30:27;96277.22;;;38.98;29.66
2761;BME280;15420;48.636;9.798;2022-08-26T14:32:56;96273.50;;;39.16;29.36
2761;BME280;15420;48.636;9.798;2022-08-26T14:35:25;96269.63;;;39.37;28.86
2761;BME280;15420;48.636;9.798;2022-08-26T14:37:52;96263.66;;;39.51;28.87
2761;BME280;15420;48.636;9.798;2022-08-26T14:40:20;96271.63;;;39.61;28.55
2761;BME280;15420;48.636;9.798;2022-08-26T14:42:53;96269.25;;;39.58;28.46
2761;BME280;15420;48.636;9.798;2022-08-26T14:45:25;96256.00;;;39.46;28.57
2761;BME280;15420;48.636;9.798;2022-08-26T14:48:00;96256.59;;;39.32;28.47
2761;BME280;15420;48.636;9.798;2022-08-26T14:50:26;96254.84;;;39.23;28.36